Terminal Aerodrome Forecast
Issued by NWS

Home | Current Version | Previous Version | Graphics & Text | Print | Product List | Glossary On
Versions: 1 2 3 4 5 6 7 8 9 10 11 12 13 14 15 16 17 18 19 20 21 22 23 24 25 26 27 28
134
FTUS43 KBIS 282333
TAFDIK
TAF
KDIK 282333Z 2900/2924 08007KT P6SM OVC020
     FM290200 08006KT P6SM BKN035
     FM290500 10004KT P6SM SCT050
     FM291200 14004KT P6SM SCT040
     FM291900 15005KT P6SM BKN060=

USA.gov is the U.S. government's official web portal to all federal, state and local government web resources and services.